createdAt,value
2019-05-29T00:01:30.338Z,96.00
2019-05-29T00:03:56.657Z,96.10
2019-05-29T00:06:22.847Z,96.10
2019-05-29T00:08:49.013Z,96.20
2019-05-29T00:11:15.237Z,96.70
2019-05-29T00:13:41.461Z,96.20
2019-05-29T00:16:08.324Z,96.70
2019-05-29T00:18:34.546Z,96.30
2019-05-29T00:21:00.839Z,96.40
2019-05-29T00:23:27.068Z,96.50
2019-05-29T00:25:53.335Z,96.60
2019-05-29T00:28:19.856Z,96.50
2019-05-29T00:30:46.120Z,96.70
2019-05-29T00:33:12.491Z,96.60
2019-05-29T00:35:38.641Z,96.70
2019-05-29T00:38:06.395Z,96.80
2019-05-29T00:40:32.743Z,96.90
2019-05-29T00:42:58.897Z,96.70
2019-05-29T00:45:25.149Z,96.80
2019-05-29T00:47:51.391Z,97.00
2019-05-29T00:50:18.140Z,96.90
2019-05-29T00:52:44.280Z,97.20
2019-05-29T00:55:12.614Z,97.20
2019-05-29T00:57:38.861Z,97.80
2019-05-29T01:00:05.868Z,97.60
2019-05-29T01:02:33.238Z,97.60
2019-05-29T01:05:00.824Z,98.20
2019-05-29T01:07:26.972Z,97.70
2019-05-29T01:09:53.403Z,97.70
2019-05-29T01:12:21.205Z,97.60
2019-05-29T01:14:50.485Z,97.70
2019-05-29T01:17:15.922Z,97.80
2019-05-29T01:19:42.194Z,97.70
2019-05-29T01:22:08.323Z,97.80
2019-05-29T01:24:34.500Z,97.90
2019-05-29T01:27:00.768Z,97.80
2019-05-29T01:29:27.065Z,98.00
2019-05-29T01:31:53.310Z,98.00
2019-05-29T01:34:19.799Z,98.00
2019-05-29T01:36:47.274Z,98.20
2019-05-29T01:39:13.416Z,98.40
2019-05-29T01:41:39.998Z,98.40
2019-05-29T01:44:07.395Z,98.20
2019-05-29T01:46:33.544Z,98.30
2019-05-29T01:49:00.010Z,98.50
2019-05-29T01:51:26.163Z,98.40
2019-05-29T01:53:52.394Z,98.60
2019-05-29T01:56:19.858Z,98.60
2019-05-29T01:58:46.493Z,99.30
2019-05-29T02:01:12.702Z,99.20
2019-05-29T02:03:38.932Z,99.00
2019-05-29T02:06:05.330Z,99.20
2019-05-29T02:08:31.716Z,98.70
2019-05-29T02:10:58.112Z,99.40
2019-05-29T02:13:24.247Z,99.40
2019-05-29T02:15:50.563Z,99.60
2019-05-29T02:18:18.846Z,99.40
2019-05-29T02:20:45.439Z,99.70
2019-05-29T02:23:12.722Z,99.90
2019-05-29T02:25:39.205Z,99.50
2019-05-29T02:28:05.367Z,99.50
2019-05-29T02:30:31.630Z,99.40
2019-05-29T02:32:57.781Z,99.50
2019-05-29T02:35:24.774Z,99.70
2019-05-29T02:37:52.031Z,99.80
2019-05-29T02:40:18.831Z,99.50
2019-05-29T02:42:46.257Z,99.70
2019-05-29T02:45:12.829Z,99.60
2019-05-29T02:47:39.366Z,99.60
2019-05-29T02:50:07.901Z,99.90
2019-05-29T02:52:34.079Z,99.90
2019-05-29T02:55:00.340Z,99.90
2019-05-29T02:57:26.896Z,99.80
2019-05-29T02:59:53.490Z,99.90
2019-05-29T03:02:21.497Z,99.90
2019-05-29T03:04:48.067Z,99.90
2019-05-29T03:07:14.321Z,99.90
2019-05-29T03:09:40.867Z,99.90
2019-05-29T03:12:07.337Z,99.90
2019-05-29T03:14:34.705Z,99.90
2019-05-29T03:17:01.295Z,99.90
2019-05-29T03:19:27.984Z,99.90
2019-05-29T03:21:54.317Z,99.90
2019-05-29T03:24:20.477Z,99.90
2019-05-29T03:26:46.684Z,99.90
2019-05-29T03:29:13.837Z,99.90
2019-05-29T03:31:47.182Z,99.90
2019-05-29T03:34:08.053Z,99.90
2019-05-29T03:36:41.916Z,99.90
2019-05-29T03:39:04.888Z,99.90
2019-05-29T03:41:32.749Z,99.90
2019-05-29T03:43:59.210Z,99.90
2019-05-29T03:46:37.045Z,99.90
2019-05-29T03:48:53.523Z,99.90
2019-05-29T03:51:19.670Z,99.90
2019-05-29T03:53:45.871Z,99.90
2019-05-29T03:56:12.271Z,99.90
2019-05-29T03:58:38.534Z,99.90
2019-05-29T04:01:04.689Z,99.90
2019-05-29T04:03:31.214Z,99.90
2019-05-29T04:05:58.015Z,99.90
2019-05-29T04:08:24.164Z,99.90
2019-05-29T04:10:50.304Z,99.90
2019-05-29T04:13:16.511Z,99.90
2019-05-29T04:15:44.568Z,99.90
2019-05-29T04:18:10.721Z,99.90
2019-05-29T04:20:38.712Z,99.90
2019-05-29T04:23:06.424Z,99.90
2019-05-29T04:25:37.262Z,99.90
2019-05-29T04:28:05.838Z,99.90
2019-05-29T04:30:32.102Z,99.90
2019-05-29T04:32:58.691Z,99.90
2019-05-29T04:35:24.828Z,99.90
2019-05-29T04:37:50.980Z,99.90
2019-05-29T04:40:17.148Z,99.90
2019-05-29T04:42:43.275Z,99.90
2019-05-29T04:45:09.654Z,99.90
2019-05-29T04:47:37.353Z,99.90
2019-05-29T04:50:05.257Z,99.90
2019-05-29T04:52:33.571Z,99.90
2019-05-29T04:54:59.942Z,99.90
2019-05-29T04:57:26.107Z,99.90
2019-05-29T04:59:52.293Z,99.90
2019-05-29T05:02:18.490Z,99.90
2019-05-29T05:04:44.699Z,99.90
2019-05-29T05:07:10.856Z,99.90
2019-05-29T05:09:37.554Z,99.90
2019-05-29T05:12:03.880Z,99.90
2019-05-29T05:14:31.501Z,99.90
2019-05-29T05:16:58.603Z,99.90
2019-05-29T05:19:24.881Z,99.90
2019-05-29T05:21:51.349Z,99.90
2019-05-29T05:24:17.820Z,99.40
2019-05-29T05:26:43.953Z,98.60
2019-05-29T05:29:10.098Z,98.20
2019-05-29T05:31:36.544Z,97.40
2019-05-29T05:34:02.995Z,96.00
2019-05-29T05:36:29.019Z,94.70
2019-05-29T05:38:55.193Z,94.00
2019-05-29T05:41:21.351Z,92.00
2019-05-29T05:43:47.494Z,91.70
2019-05-29T05:46:13.649Z,91.10
2019-05-29T05:48:39.864Z,88.20
2019-05-29T05:51:05.891Z,88.70
2019-05-29T05:53:33.317Z,86.60
2019-05-29T05:55:59.610Z,85.20
2019-05-29T05:58:25.757Z,84.50
2019-05-29T06:00:52.449Z,83.30
2019-05-29T06:03:18.610Z,81.10
2019-05-29T06:05:44.768Z,78.20
2019-05-29T06:08:11.180Z,78.40
2019-05-29T06:10:38.205Z,78.20
2019-05-29T06:13:04.461Z,79.00
2019-05-29T06:15:32.244Z,78.80
2019-05-29T06:18:19.474Z,79.00
2019-05-29T06:20:27.193Z,76.90
2019-05-29T06:22:53.377Z,76.80
2019-05-29T06:25:19.732Z,75.20
2019-05-29T06:27:46.283Z,75.60
2019-05-29T06:30:13.288Z,73.70
2019-05-29T06:32:39.765Z,73.70
2019-05-29T06:37:55.245Z,72.50
2019-05-29T06:40:40.271Z,70.60
2019-05-29T06:43:18.910Z,72.80
2019-05-29T06:45:45.384Z,71.60
2019-05-29T06:48:15.395Z,71.40
2019-05-29T06:50:41.621Z,70.30
2019-05-29T06:53:07.982Z,68.00
2019-05-29T06:55:35.658Z,65.80
2019-05-29T06:58:02.177Z,66.80
2019-05-29T07:00:35.274Z,66.90
2019-05-29T07:02:56.791Z,66.20
2019-05-29T07:05:22.935Z,64.70
2019-05-29T07:07:49.076Z,62.30
2019-05-29T07:10:15.440Z,61.80
2019-05-29T07:12:42.396Z,61.00
2019-05-29T07:15:09.151Z,61.80
2019-05-29T07:17:36.295Z,58.50
2019-05-29T07:20:04.470Z,61.50
2019-05-29T07:22:32.095Z,62.40
2019-05-29T07:24:59.241Z,58.20
2019-05-29T07:27:25.409Z,58.20
2019-05-29T07:29:51.872Z,57.60
2019-05-29T07:32:18.271Z,57.70
2019-05-29T07:34:57.839Z,56.10
2019-05-29T07:37:13.040Z,57.40
2019-05-29T07:39:39.434Z,56.70
2019-05-29T07:42:05.710Z,55.50
2019-05-29T07:44:31.993Z,54.10
2019-05-29T07:46:58.317Z,52.30
2019-05-29T07:49:38.151Z,51.50
2019-05-29T07:51:52.764Z,51.80
2019-05-29T07:54:19.218Z,50.30
2019-05-29T07:56:46.622Z,50.30
2019-05-29T07:59:12.894Z,48.40
2019-05-29T08:01:39.137Z,47.70
2019-05-29T08:04:05.522Z,48.30
2019-05-29T08:06:32.213Z,46.50
2019-05-29T08:08:58.986Z,47.80
2019-05-29T08:11:25.161Z,47.60
2019-05-29T08:13:51.314Z,47.20
2019-05-29T08:16:17.475Z,43.90
2019-05-29T08:18:47.236Z,45.50
2019-05-29T08:21:11.808Z,47.00
2019-05-29T08:23:38.008Z,46.70
2019-05-29T08:26:04.503Z,44.90
2019-05-29T08:28:31.324Z,47.60
2019-05-29T08:30:57.685Z,45.50
2019-05-29T08:33:23.841Z,47.80
2019-05-29T08:35:57.704Z,47.80
2019-05-29T08:38:18.224Z,49.30
2019-05-29T08:40:45.118Z,48.20
2019-05-29T08:43:11.480Z,46.60
2019-05-29T08:45:37.628Z,47.00
2019-05-29T08:48:04.037Z,47.70
2019-05-29T08:50:30.177Z,45.50
2019-05-29T08:52:56.691Z,43.10
2019-05-29T08:55:22.838Z,45.70
2019-05-29T08:57:49.284Z,42.90
2019-05-29T09:00:17.184Z,43.50
2019-05-29T09:02:44.664Z,44.10
2019-05-29T09:05:12.331Z,43.90
2019-05-29T09:07:38.507Z,41.20
2019-05-29T09:10:07.144Z,40.50
2019-05-29T09:12:33.309Z,41.00
2019-05-29T09:14:59.456Z,43.10
2019-05-29T09:17:25.877Z,43.60
2019-05-29T09:19:52.019Z,43.10
2019-05-29T09:22:18.615Z,40.30
2019-05-29T09:24:45.037Z,37.70
2019-05-29T09:27:11.182Z,40.40
2019-05-29T09:29:37.327Z,39.00
2019-05-29T09:32:03.507Z,39.90
2019-05-29T09:34:29.965Z,42.30
2019-05-29T09:36:56.159Z,42.40
2019-05-29T09:39:22.814Z,44.10
2019-05-29T09:41:49.061Z,42.90
2019-05-29T09:44:32.962Z,41.60
2019-05-29T09:46:44.119Z,41.80
2019-05-29T09:49:11.374Z,41.40
2019-05-29T09:51:37.524Z,42.10
2019-05-29T09:54:03.783Z,39.70
2019-05-29T09:56:29.940Z,38.60
2019-05-29T09:58:57.827Z,41.50
2019-05-29T10:01:25.277Z,39.80
2019-05-29T10:03:54.596Z,40.70
2019-05-29T10:06:20.439Z,42.50
2019-05-29T10:08:46.843Z,41.30
2019-05-29T10:11:13.123Z,41.60
2019-05-29T10:13:39.268Z,44.10
2019-05-29T10:16:05.612Z,42.70
2019-05-29T10:18:32.977Z,42.10
2019-05-29T10:20:59.747Z,42.00
2019-05-29T10:23:27.276Z,43.80
2019-05-29T10:25:53.534Z,43.40
2019-05-29T10:28:19.723Z,43.70
2019-05-29T10:30:46.281Z,43.50
2019-05-29T10:33:12.581Z,42.80
2019-05-29T10:35:38.730Z,41.90
2019-05-29T10:38:04.887Z,40.70
2019-05-29T10:40:31.028Z,40.90
2019-05-29T10:42:57.303Z,41.10
2019-05-29T10:45:23.553Z,41.80
2019-05-29T10:47:49.954Z,42.90
2019-05-29T10:50:16.872Z,43.80
2019-05-29T10:52:43.774Z,44.50
2019-05-29T10:55:10.502Z,43.00
2019-05-29T10:57:36.665Z,42.70
2019-05-29T11:00:08.851Z,44.00
2019-05-29T11:02:35.105Z,45.20
2019-05-29T11:05:01.256Z,44.60
2019-05-29T11:07:27.415Z,44.00
2019-05-29T11:09:54.277Z,44.00
2019-05-29T11:12:20.552Z,45.90
2019-05-29T11:14:46.884Z,45.30
2019-05-29T11:17:13.301Z,45.20
2019-05-29T11:19:39.439Z,45.80
2019-05-29T11:22:22.893Z,46.00
2019-05-29T11:24:33.893Z,44.90
2019-05-29T11:27:00.037Z,45.00
2019-05-29T11:29:26.236Z,46.70
2019-05-29T11:31:53.390Z,45.10
2019-05-29T11:34:20.093Z,45.00
2019-05-29T11:36:46.233Z,44.70
2019-05-29T11:39:12.576Z,45.20
2019-05-29T11:41:38.715Z,43.60
2019-05-29T11:44:05.319Z,45.00
2019-05-29T11:46:31.972Z,44.50
2019-05-29T11:48:59.253Z,44.20
2019-05-29T11:51:25.836Z,43.00
2019-05-29T11:53:53.456Z,44.50
2019-05-29T11:56:19.724Z,44.20
2019-05-29T11:58:45.887Z,43.60
2019-05-29T12:01:12.135Z,43.90
2019-05-29T12:04:05.734Z,44.30
2019-05-29T12:06:07.485Z,44.00
2019-05-29T12:08:33.730Z,44.30
2019-05-29T12:11:00.131Z,44.00
2019-05-29T12:13:26.300Z,43.60
2019-05-29T12:15:53.561Z,43.70
2019-05-29T12:18:24.326Z,44.30
2019-05-29T12:20:49.168Z,44.20
2019-05-29T12:23:25.852Z,44.30
2019-05-29T12:25:43.623Z,44.20
2019-05-29T12:28:09.757Z,43.40
2019-05-29T12:30:36.376Z,41.50
2019-05-29T12:33:03.664Z,42.70
2019-05-29T12:35:29.813Z,42.80
2019-05-29T12:37:57.260Z,43.80
2019-05-29T12:40:23.804Z,43.30
2019-05-29T12:42:50.023Z,44.30
2019-05-29T12:45:18.127Z,42.70
2019-05-29T12:47:44.275Z,42.40
2019-05-29T12:50:12.406Z,42.80
2019-05-29T12:52:38.874Z,43.20
2019-05-29T12:55:08.626Z,42.80
2019-05-29T12:57:34.796Z,43.10
2019-05-29T13:00:03.875Z,39.60
2019-05-29T13:02:29.387Z,39.50
2019-05-29T13:05:06.767Z,39.30
2019-05-29T13:07:23.622Z,39.20
2019-05-29T13:09:49.873Z,41.20
2019-05-29T13:12:16.063Z,40.00
2019-05-29T13:14:42.210Z,38.20
2019-05-29T13:17:08.747Z,37.20
2019-05-29T13:19:34.956Z,37.20
2019-05-29T13:22:01.606Z,37.40
2019-05-29T13:24:28.026Z,38.90
2019-05-29T13:26:55.364Z,40.60
2019-05-29T13:29:21.753Z,41.20
2019-05-29T13:31:47.888Z,41.50
2019-05-29T13:34:14.052Z,41.70
2019-05-29T13:36:40.263Z,42.00
2019-05-29T13:39:07.342Z,41.50
2019-05-29T13:41:33.533Z,40.50
2019-05-29T13:44:00.511Z,41.10
2019-05-29T13:46:27.381Z,40.80
2019-05-29T13:48:53.592Z,40.00
2019-05-29T13:51:19.772Z,40.10
2019-05-29T13:54:02.025Z,40.10
2019-05-29T13:56:15.116Z,41.10
2019-05-29T13:58:41.540Z,40.90
2019-05-29T14:01:08.343Z,40.60
2019-05-29T14:03:35.194Z,39.90
2019-05-29T14:06:03.101Z,39.60
2019-05-29T14:08:29.538Z,40.60
2019-05-29T14:10:55.705Z,39.90
2019-05-29T14:13:21.935Z,38.90
2019-05-29T14:15:48.468Z,39.40
2019-05-29T14:18:14.755Z,37.10
2019-05-29T14:20:42.037Z,38.00
2019-05-29T14:23:09.436Z,38.80
2019-05-29T14:25:35.905Z,38.40
2019-05-29T14:28:02.690Z,38.50
2019-05-29T14:30:29.520Z,39.00
2019-05-29T14:32:55.651Z,39.20
2019-05-29T14:35:21.835Z,40.00
2019-05-29T14:37:48.242Z,38.60
2019-05-29T14:40:14.982Z,37.70
2019-05-29T14:42:41.179Z,37.60
2019-05-29T14:45:08.311Z,38.90
2019-05-29T14:47:35.605Z,37.40
2019-05-29T14:50:06.465Z,36.40
2019-05-29T14:52:32.800Z,37.10
2019-05-29T14:54:59.107Z,35.80
2019-05-29T14:57:26.364Z,37.90
2019-05-29T14:59:52.763Z,38.80
2019-05-29T15:02:23.891Z,37.30
2019-05-29T15:04:47.151Z,39.30
2019-05-29T15:07:14.041Z,40.50
2019-05-29T15:09:40.379Z,40.50
2019-05-29T15:12:07.925Z,40.00
2019-05-29T15:14:34.386Z,40.00
2019-05-29T15:17:00.542Z,40.50
2019-05-29T15:19:26.687Z,41.00
2019-05-29T15:21:52.845Z,42.20
2019-05-29T15:24:19.188Z,41.40
2019-05-29T15:26:45.389Z,42.10
2019-05-29T15:29:14.424Z,42.60
2019-05-29T15:31:39.656Z,42.10
2019-05-29T15:34:06.188Z,43.50
2019-05-29T15:36:32.789Z,43.50
2019-05-29T15:38:59.267Z,43.10
2019-05-29T15:41:25.434Z,42.30
2019-05-29T15:43:51.647Z,41.70
2019-05-29T15:46:18.021Z,41.70
2019-05-29T15:48:44.569Z,41.70
2019-05-29T15:51:10.995Z,41.40
2019-05-29T15:53:38.427Z,42.00
2019-05-29T15:56:20.200Z,41.20
2019-05-29T15:58:32.815Z,41.00
2019-05-29T16:00:58.980Z,41.20
2019-05-29T16:03:25.132Z,41.60
2019-05-29T16:05:51.683Z,41.70
2019-05-29T16:08:18.278Z,42.20
2019-05-29T16:10:44.632Z,42.90
2019-05-29T16:13:11.085Z,43.00
2019-05-29T16:15:37.505Z,44.00
2019-05-29T16:18:11.551Z,42.40
2019-05-29T16:20:32.887Z,43.40
2019-05-29T16:22:59.174Z,42.10
2019-05-29T16:25:39.514Z,42.50
2019-05-29T16:27:53.547Z,42.70
2019-05-29T16:30:20.159Z,42.70
2019-05-29T16:32:46.391Z,42.50
2019-05-29T16:35:13.139Z,43.30
2019-05-29T16:37:39.533Z,42.30
2019-05-29T16:40:08.288Z,41.80
2019-05-29T16:42:34.844Z,41.80
2019-05-29T16:45:01.109Z,41.70
2019-05-29T16:47:27.279Z,41.00
2019-05-29T16:49:53.749Z,40.80
2019-05-29T16:52:20.806Z,41.20
2019-05-29T16:54:47.309Z,41.30
2019-05-29T16:57:14.989Z,40.80
2019-05-29T16:59:42.522Z,41.00
2019-05-29T17:02:08.967Z,41.90
2019-05-29T17:04:35.511Z,41.60
2019-05-29T17:07:01.666Z,41.50
2019-05-29T17:09:27.833Z,41.00
2019-05-29T17:11:54.319Z,42.00
2019-05-29T17:14:20.872Z,42.90
2019-05-29T17:16:47.684Z,41.60
2019-05-29T17:19:14.504Z,42.40
2019-05-29T17:21:40.883Z,41.10
2019-05-29T17:24:07.373Z,41.90
2019-05-29T17:26:33.591Z,42.60
2019-05-29T17:28:59.887Z,42.70
2019-05-29T17:31:26.060Z,42.20
2019-05-29T17:33:52.366Z,42.70
2019-05-29T17:36:18.921Z,42.70
2019-05-29T17:38:46.490Z,42.20
2019-05-29T17:41:13.261Z,43.20
2019-05-29T17:43:39.794Z,42.70
2019-05-29T17:46:06.831Z,43.60
2019-05-29T17:48:33.366Z,43.80
2019-05-29T17:50:59.616Z,44.70
2019-05-29T17:53:26.905Z,44.40
2019-05-29T17:55:53.435Z,44.80
2019-05-29T17:58:21.068Z,45.60
2019-05-29T18:00:48.007Z,44.40
2019-05-29T18:03:14.324Z,44.50
2019-05-29T18:05:40.541Z,45.20
2019-05-29T18:08:06.697Z,45.50
2019-05-29T18:10:32.865Z,44.90
2019-05-29T18:13:00.261Z,45.20
2019-05-29T18:15:27.785Z,45.60
2019-05-29T18:17:54.191Z,46.50
2019-05-29T18:20:21.687Z,46.40
2019-05-29T18:22:48.014Z,46.70
2019-05-29T18:25:15.547Z,46.90
2019-05-29T18:27:41.782Z,46.60
2019-05-29T18:30:10.259Z,47.70
2019-05-29T18:32:36.581Z,47.60
2019-05-29T18:35:05.429Z,47.00
2019-05-29T18:37:32.518Z,47.10
2019-05-29T18:39:58.825Z,47.40
2019-05-29T18:42:25.783Z,48.00
2019-05-29T18:44:53.079Z,48.60
2019-05-29T18:47:19.219Z,47.90
2019-05-29T18:49:45.432Z,48.60
2019-05-29T18:52:11.602Z,48.60
2019-05-29T18:54:37.815Z,48.90
2019-05-29T18:57:15.087Z,48.50
2019-05-29T18:59:32.097Z,48.90
2019-05-29T19:01:58.643Z,49.70
2019-05-29T19:04:25.490Z,48.90
2019-05-29T19:06:52.136Z,49.90
2019-05-29T19:09:18.780Z,50.10
2019-05-29T19:11:44.920Z,49.50
2019-05-29T19:14:12.091Z,51.00
2019-05-29T19:16:39.610Z,51.80
2019-05-29T19:19:06.085Z,51.40
2019-05-29T19:21:32.660Z,52.00
2019-05-29T19:23:59.180Z,52.40
2019-05-29T19:26:26.670Z,51.60
2019-05-29T19:28:53.294Z,51.90
2019-05-29T19:31:19.514Z,53.40
2019-05-29T19:33:45.784Z,53.10
2019-05-29T19:36:12.039Z,55.00
2019-05-29T19:38:39.481Z,55.30
2019-05-29T19:41:05.825Z,54.00
2019-05-29T19:43:32.380Z,54.40
2019-05-29T19:45:58.770Z,54.30
2019-05-29T19:48:25.306Z,55.00
2019-05-29T19:50:51.686Z,56.00
2019-05-29T19:53:18.146Z,55.90
2019-05-29T19:55:44.310Z,57.20
2019-05-29T19:58:10.479Z,58.60
2019-05-29T20:00:36.848Z,58.50
2019-05-29T20:03:03.700Z,58.40
2019-05-29T20:05:30.656Z,58.10
2019-05-29T20:07:57.148Z,57.90
2019-05-29T20:10:23.321Z,57.50
2019-05-29T20:12:49.476Z,58.60
2019-05-29T20:15:16.188Z,59.70
2019-05-29T20:17:42.355Z,58.90
2019-05-29T20:20:08.832Z,59.00
2019-05-29T20:22:35.245Z,58.50
2019-05-29T20:25:01.725Z,58.90
2019-05-29T20:27:27.883Z,59.60
2019-05-29T20:29:54.038Z,59.00
2019-05-29T20:32:20.438Z,59.60
2019-05-29T20:34:46.840Z,60.00
2019-05-29T20:37:13.063Z,60.20
2019-05-29T20:39:39.217Z,60.20
2019-05-29T20:42:05.825Z,60.40
2019-05-29T20:44:32.622Z,59.90
2019-05-29T20:46:58.856Z,60.10
2019-05-29T20:49:25.416Z,60.10
2019-05-29T20:51:53.005Z,61.70
2019-05-29T20:54:19.184Z,61.60
2019-05-29T20:56:45.332Z,60.90
2019-05-29T20:59:11.529Z,63.00
2019-05-29T21:01:43.024Z,62.80
2019-05-29T21:04:06.266Z,63.70
2019-05-29T21:06:32.481Z,63.50
2019-05-29T21:08:58.655Z,64.60
2019-05-29T21:11:24.796Z,65.00
2019-05-29T21:13:51.200Z,64.70
2019-05-29T21:16:17.624Z,65.40
2019-05-29T21:18:44.140Z,64.90
2019-05-29T21:21:10.446Z,65.10
2019-05-29T21:23:36.619Z,65.50
2019-05-29T21:26:03.530Z,65.50
2019-05-29T21:28:39.780Z,65.80
2019-05-29T21:30:58.980Z,64.80
2019-05-29T21:33:25.155Z,65.40
2019-05-29T21:35:51.300Z,65.00
2019-05-29T21:38:17.473Z,64.50
2019-05-29T21:40:44.575Z,64.90
2019-05-29T21:43:11.046Z,64.80
2019-05-29T21:45:38.660Z,65.00
2019-05-29T21:48:05.079Z,64.90
2019-05-29T21:50:31.223Z,65.40
2019-05-29T21:52:58.499Z,65.40
2019-05-29T21:55:24.657Z,66.00
2019-05-29T21:57:50.795Z,65.00
2019-05-29T22:00:19.415Z,65.60
2019-05-29T22:02:48.535Z,64.60
2019-05-29T22:05:15.224Z,65.10
2019-05-29T22:07:42.794Z,65.70
2019-05-29T22:10:10.552Z,65.60
2019-05-29T22:12:36.696Z,64.80
2019-05-29T22:15:05.598Z,65.70
2019-05-29T22:17:32.160Z,66.30
2019-05-29T22:19:59.045Z,65.40
2019-05-29T22:22:25.376Z,66.60
2019-05-29T22:24:51.532Z,65.70
2019-05-29T22:27:17.697Z,65.50
2019-05-29T22:29:43.853Z,65.80
2019-05-29T22:32:09.993Z,66.00
2019-05-29T22:34:36.145Z,65.90
2019-05-29T22:37:02.739Z,66.00
2019-05-29T22:39:28.886Z,65.90
2019-05-29T22:41:55.658Z,66.20
2019-05-29T22:44:21.830Z,66.60
2019-05-29T22:46:47.980Z,67.00
2019-05-29T22:49:14.125Z,66.80
2019-05-29T22:51:40.288Z,66.90
2019-05-29T22:54:06.423Z,67.10
2019-05-29T22:56:32.855Z,67.50
2019-05-29T22:59:00.124Z,67.70
2019-05-29T23:01:26.379Z,67.60
2019-05-29T23:03:54.018Z,68.00
2019-05-29T23:06:20.483Z,68.10
2019-05-29T23:08:46.827Z,68.20
2019-05-29T23:11:13.001Z,68.50
2019-05-29T23:13:39.200Z,68.70
2019-05-29T23:16:05.572Z,68.30
2019-05-29T23:18:32.073Z,68.90
2019-05-29T23:20:58.474Z,69.50
2019-05-29T23:23:24.943Z,69.90
2019-05-29T23:25:51.098Z,70.30
2019-05-29T23:28:17.517Z,70.90
2019-05-29T23:30:43.989Z,71.00
2019-05-29T23:33:10.193Z,71.10
2019-05-29T23:35:36.364Z,71.50
2019-05-29T23:38:03.480Z,71.50
2019-05-29T23:40:30.906Z,72.20
2019-05-29T23:42:57.321Z,73.30
2019-05-29T23:45:23.609Z,73.50
2019-05-29T23:47:49.764Z,73.50
2019-05-29T23:50:16.126Z,74.20
2019-05-29T23:52:42.311Z,74.70
2019-05-29T23:55:09.251Z,75.30
2019-05-29T23:57:35.717Z,75.50
